sensor_id;sensor_type;location;lat;lon;timestamp;pressure;altitude;pressure_sealevel;temperature;humidity
24154;BME280;12312;53.362;-1.518;2023-01-30T00:01:24;99392.41;;;5.48;99.46
24154;BME280;12312;53.362;-1.518;2023-01-30T00:03:50;99410.13;;;5.46;100.00
24154;BME280;12312;53.362;-1.518;2023-01-30T00:06:19;99412.13;;;5.41;100.00
24154;BME280;12312;53.362;-1.518;2023-01-30T00:08:45;99406.13;;;5.38;100.00
24154;BME280;12312;53.362;-1.518;2023-01-30T00:11:13;99401.72;;;5.38;100.00
24154;BME280;12312;53.362;-1.518;2023-01-30T00:13:40;99413.59;;;5.30;100.00
24154;BME280;12312;53.362;-1.518;2023-01-30T00:16:07;99417.00;;;5.32;100.00
24154;BME280;12312;53.362;-1.518;2023-01-30T00:18:38;99404.75;;;5.31;100.00
24154;BME280;12312;53.362;-1.518;2023-01-30T00:21:07;99411.19;;;5.25;100.00
24154;BME280;12312;53.362;-1.518;2023-01-30T00:23:35;99416.59;;;5.22;100.00
24154;BME280;12312;53.362;-1.518;2023-01-30T00:26:02;99411.31;;;5.22;100.00
24154;BME280;12312;53.362;-1.518;2023-01-30T00:28:27;99407.03;;;5.20;100.00
24154;BME280;12312;53.362;-1.518;2023-01-30T00:30:54;99406.19;;;5.19;100.00
24154;BME280;12312;53.362;-1.518;2023-01-30T00:33:22;99392.78;;;5.24;100.00
24154;BME280;12312;53.362;-1.518;2023-01-30T00:35:50;99405.91;;;5.25;100.00
24154;BME280;12312;53.362;-1.518;2023-01-30T00:38:16;99405.09;;;5.23;100.00
24154;BME280;12312;53.362;-1.518;2023-01-30T00:40:43;99409.59;;;5.21;100.00
24154;BME280;12312;53.362;-1.518;2023-01-30T00:43:11;99401.75;;;5.20;100.00
24154;BME280;12312;53.362;-1.518;2023-01-30T00:45:55;99398.91;;;5.24;100.00
24154;BME280;12312;53.362;-1.518;2023-01-30T00:48:40;99415.66;;;5.23;99.40
24154;BME280;12312;53.362;-1.518;2023-01-30T00:51:05;99410.16;;;5.28;98.22
24154;BME280;12312;53.362;-1.518;2023-01-30T00:53:31;99416.44;;;5.25;98.35
24154;BME280;12312;53.362;-1.518;2023-01-30T00:55:57;99422.56;;;5.26;98.06
24154;BME280;12312;53.362;-1.518;2023-01-30T00:58:23;99413.03;;;5.23;95.98
24154;BME280;12312;53.362;-1.518;2023-01-30T01:00:50;99412.16;;;5.23;96.48
24154;BME280;12312;53.362;-1.518;2023-01-30T01:03:16;99417.50;;;5.21;95.28
24154;BME280;12312;53.362;-1.518;2023-01-30T01:05:42;99433.34;;;5.21;96.07
24154;BME280;12312;53.362;-1.518;2023-01-30T01:08:09;99427.84;;;5.26;95.10
24154;BME280;12312;53.362;-1.518;2023-01-30T01:10:36;99430.47;;;5.26;95.47
24154;BME280;12312;53.362;-1.518;2023-01-30T01:13:03;99437.56;;;5.25;95.38
24154;BME280;12312;53.362;-1.518;2023-01-30T01:15:30;99432.28;;;5.25;96.36
24154;BME280;12312;53.362;-1.518;2023-01-30T01:17:58;99441.09;;;5.24;96.85
24154;BME280;12312;53.362;-1.518;2023-01-30T01:20:23;99437.72;;;5.22;97.07
24154;BME280;12312;53.362;-1.518;2023-01-30T01:22:54;99431.00;;;5.15;95.19
24154;BME280;12312;53.362;-1.518;2023-01-30T01:25:21;99436.56;;;5.09;95.66
24154;BME280;12312;53.362;-1.518;2023-01-30T01:27:48;99436.84;;;5.03;95.82
24154;BME280;12312;53.362;-1.518;2023-01-30T01:30:14;99435.44;;;4.96;95.77
24154;BME280;12312;53.362;-1.518;2023-01-30T01:32:41;99422.53;;;4.90;94.76
24154;BME280;12312;53.362;-1.518;2023-01-30T01:35:07;99427.00;;;4.88;94.35
24154;BME280;12312;53.362;-1.518;2023-01-30T01:37:32;99425.31;;;4.87;94.43
24154;BME280;12312;53.362;-1.518;2023-01-30T01:39:58;99414.75;;;4.87;92.48
24154;BME280;12312;53.362;-1.518;2023-01-30T01:42:42;99422.09;;;4.81;94.47
24154;BME280;12312;53.362;-1.518;2023-01-30T01:47:34;99436.41;;;4.75;94.21
24154;BME280;12312;53.362;-1.518;2023-01-30T01:50:01;99428.66;;;4.72;93.67
24154;BME280;12312;53.362;-1.518;2023-01-30T01:52:30;99421.03;;;4.66;93.03
24154;BME280;12312;53.362;-1.518;2023-01-30T01:54:59;99437.47;;;4.71;94.48
24154;BME280;12312;53.362;-1.518;2023-01-30T01:57:36;99441.84;;;4.72;93.99
24154;BME280;12312;53.362;-1.518;2023-01-30T02:00:15;99443.00;;;4.65;93.51
24154;BME280;12312;53.362;-1.518;2023-01-30T02:02:48;99450.91;;;4.65;94.00
24154;BME280;12312;53.362;-1.518;2023-01-30T02:05:29;99447.53;;;4.63;93.34
24154;BME280;12312;53.362;-1.518;2023-01-30T02:08:10;99447.53;;;4.63;93.54
24154;BME280;12312;53.362;-1.518;2023-01-30T02:13:36;99436.69;;;4.69;93.67
24154;BME280;12312;53.362;-1.518;2023-01-30T02:16:05;99437.75;;;4.65;93.59
24154;BME280;12312;53.362;-1.518;2023-01-30T02:18:33;99438.53;;;4.67;93.06
24154;BME280;12312;53.362;-1.518;2023-01-30T02:24:49;99438.97;;;4.58;95.13
24154;BME280;12312;53.362;-1.518;2023-01-30T02:32:33;99419.50;;;4.61;94.57
24154;BME280;12312;53.362;-1.518;2023-01-30T02:37:41;99431.44;;;4.69;94.14
24154;BME280;12312;53.362;-1.518;2023-01-30T02:40:17;99434.97;;;4.68;94.77
24154;BME280;12312;53.362;-1.518;2023-01-30T02:42:59;99441.97;;;4.69;94.86
24154;BME280;12312;53.362;-1.518;2023-01-30T02:48:22;99454.50;;;4.64;95.18
24154;BME280;12312;53.362;-1.518;2023-01-30T02:50:58;99457.78;;;4.69;94.15
24154;BME280;12312;53.362;-1.518;2023-01-30T02:53:30;99465.75;;;4.68;94.58
24154;BME280;12312;53.362;-1.518;2023-01-30T02:55:56;99471.59;;;4.74;94.57
24154;BME280;12312;53.362;-1.518;2023-01-30T02:58:22;99477.72;;;4.75;94.26
24154;BME280;12312;53.362;-1.518;2023-01-30T03:04:29;99485.72;;;4.73;95.08
24154;BME280;12312;53.362;-1.518;2023-01-30T03:11:44;99486.78;;;4.69;95.94
24154;BME280;12312;53.362;-1.518;2023-01-30T03:14:20;99499.97;;;4.69;95.15
24154;BME280;12312;53.362;-1.518;2023-01-30T03:16:52;99491.13;;;4.70;94.92
24154;BME280;12312;53.362;-1.518;2023-01-30T03:19:19;99494.91;;;4.65;96.42
24154;BME280;12312;53.362;-1.518;2023-01-30T03:21:45;99488.81;;;4.63;95.26
24154;BME280;12312;53.362;-1.518;2023-01-30T03:24:12;99486.72;;;4.71;94.68
24154;BME280;12312;53.362;-1.518;2023-01-30T03:26:43;99496.38;;;4.70;94.64
24154;BME280;12312;53.362;-1.518;2023-01-30T03:29:12;99501.53;;;4.73;94.51
24154;BME280;12312;53.362;-1.518;2023-01-30T03:31:38;99499.69;;;4.75;96.00
24154;BME280;12312;53.362;-1.518;2023-01-30T03:34:04;99531.31;;;4.75;96.73
24154;BME280;12312;53.362;-1.518;2023-01-30T03:36:29;99521.41;;;4.80;95.77
24154;BME280;12312;53.362;-1.518;2023-01-30T03:38:55;99524.56;;;4.88;94.70
24154;BME280;12312;53.362;-1.518;2023-01-30T03:41:21;99516.50;;;4.91;94.52
24154;BME280;12312;53.362;-1.518;2023-01-30T03:43:47;99534.84;;;4.94;95.04
24154;BME280;12312;53.362;-1.518;2023-01-30T03:46:13;99529.69;;;4.91;95.04
24154;BME280;12312;53.362;-1.518;2023-01-30T03:48:38;99536.47;;;4.97;95.10
24154;BME280;12312;53.362;-1.518;2023-01-30T03:51:04;99521.78;;;4.91;95.27
24154;BME280;12312;53.362;-1.518;2023-01-30T03:53:31;99516.50;;;4.91;94.75
24154;BME280;12312;53.362;-1.518;2023-01-30T03:55:56;99541.03;;;4.93;96.50
24154;BME280;12312;53.362;-1.518;2023-01-30T03:58:22;99525.22;;;4.93;94.70
24154;BME280;12312;53.362;-1.518;2023-01-30T04:00:49;99533.91;;;4.95;94.60
24154;BME280;12312;53.362;-1.518;2023-01-30T04:03:20;99535.78;;;4.93;95.99
24154;BME280;12312;53.362;-1.518;2023-01-30T04:05:53;99516.38;;;4.94;95.33
24154;BME280;12312;53.362;-1.518;2023-01-30T04:08:18;99535.78;;;4.93;96.11
24154;BME280;12312;53.362;-1.518;2023-01-30T04:10:44;99528.75;;;4.92;95.57
24154;BME280;12312;53.362;-1.518;2023-01-30T04:13:19;99538.34;;;4.95;94.73
24154;BME280;12312;53.362;-1.518;2023-01-30T04:15:49;99530.50;;;4.93;95.62
24154;BME280;12312;53.362;-1.518;2023-01-30T04:18:14;99545.31;;;4.96;95.15
24154;BME280;12312;53.362;-1.518;2023-01-30T04:20:46;99547.88;;;4.97;95.09
24154;BME280;12312;53.362;-1.518;2023-01-30T04:23:12;99564.72;;;4.95;95.07
24154;BME280;12312;53.362;-1.518;2023-01-30T04:25:45;99561.13;;;4.96;95.96
24154;BME280;12312;53.362;-1.518;2023-01-30T04:28:12;99561.88;;;4.99;95.80
24154;BME280;12312;53.362;-1.518;2023-01-30T04:30:38;99574.19;;;4.99;96.03
24154;BME280;12312;53.362;-1.518;2023-01-30T04:33:04;99569.72;;;5.01;95.90
24154;BME280;12312;53.362;-1.518;2023-01-30T04:35:29;99574.13;;;5.00;96.50
24154;BME280;12312;53.362;-1.518;2023-01-30T04:37:55;99578.72;;;4.95;96.47
24154;BME280;12312;53.362;-1.518;2023-01-30T04:40:20;99568.91;;;4.99;95.48
24154;BME280;12312;53.362;-1.518;2023-01-30T04:42:48;99572.56;;;4.96;94.70
24154;BME280;12312;53.362;-1.518;2023-01-30T04:45:13;99569.13;;;4.94;95.95
24154;BME280;12312;53.362;-1.518;2023-01-30T04:47:39;99573.38;;;4.97;96.21
24154;BME280;12312;53.362;-1.518;2023-01-30T04:50:05;99569.13;;;4.94;95.25
24154;BME280;12312;53.362;-1.518;2023-01-30T04:52:31;99581.22;;;4.98;93.14
24154;BME280;12312;53.362;-1.518;2023-01-30T04:54:56;99588.38;;;4.96;94.20
24154;BME280;12312;53.362;-1.518;2023-01-30T04:57:23;99577.56;;;5.02;94.53
24154;BME280;12312;53.362;-1.518;2023-01-30T04:59:48;99582.91;;;5.01;94.35
24154;BME280;12312;53.362;-1.518;2023-01-30T05:02:14;99580.31;;;4.99;94.20
24154;BME280;12312;53.362;-1.518;2023-01-30T05:04:39;99590.22;;;4.94;93.78
24154;BME280;12312;53.362;-1.518;2023-01-30T05:07:05;99579.59;;;4.96;92.68
24154;BME280;12312;53.362;-1.518;2023-01-30T05:09:30;99584.94;;;4.94;93.48
24154;BME280;12312;53.362;-1.518;2023-01-30T05:11:55;99597.19;;;4.95;93.75
24154;BME280;12312;53.362;-1.518;2023-01-30T05:14:21;99591.34;;;4.89;92.94
24154;BME280;12312;53.362;-1.518;2023-01-30T05:16:51;99592.91;;;4.93;93.01
24154;BME280;12312;53.362;-1.518;2023-01-30T05:19:16;99585.13;;;4.90;92.82
24154;BME280;12312;53.362;-1.518;2023-01-30T05:21:42;99585.94;;;4.92;93.07
24154;BME280;12312;53.362;-1.518;2023-01-30T05:24:07;99576.38;;;4.89;93.71
24154;BME280;12312;53.362;-1.518;2023-01-30T05:26:33;99577.81;;;4.96;93.66
24154;BME280;12312;53.362;-1.518;2023-01-30T05:28:58;99588.66;;;4.90;93.64
24154;BME280;12312;53.362;-1.518;2023-01-30T05:31:25;99579.00;;;4.89;93.02
24154;BME280;12312;53.362;-1.518;2023-01-30T05:33:51;99574.53;;;4.91;92.63
24154;BME280;12312;53.362;-1.518;2023-01-30T05:36:18;99586.06;;;4.89;92.78
24154;BME280;12312;53.362;-1.518;2023-01-30T05:38:45;99587.03;;;4.86;92.06
24154;BME280;12312;53.362;-1.518;2023-01-30T05:41:12;99609.75;;;4.90;91.69
24154;BME280;12312;53.362;-1.518;2023-01-30T05:43:38;99602.72;;;4.89;91.54
24154;BME280;12312;53.362;-1.518;2023-01-30T05:46:04;99619.28;;;4.93;91.31
24154;BME280;12312;53.362;-1.518;2023-01-30T05:48:32;99623.81;;;4.89;92.11
24154;BME280;12312;53.362;-1.518;2023-01-30T05:50:58;99614.88;;;4.93;90.92
24154;BME280;12312;53.362;-1.518;2023-01-30T05:53:30;99628.97;;;4.92;92.60
24154;BME280;12312;53.362;-1.518;2023-01-30T05:56:01;99625.28;;;4.96;91.51
24154;BME280;12312;53.362;-1.518;2023-01-30T05:58:30;99644.53;;;4.98;91.79
24154;BME280;12312;53.362;-1.518;2023-01-30T06:01:13;99637.28;;;5.03;89.97
24154;BME280;12312;53.362;-1.518;2023-01-30T06:03:39;99655.06;;;4.98;91.44
24154;BME280;12312;53.362;-1.518;2023-01-30T06:06:05;99665.22;;;5.07;92.38
24154;BME280;12312;53.362;-1.518;2023-01-30T06:08:32;99666.47;;;4.99;92.57
24154;BME280;12312;53.362;-1.518;2023-01-30T06:11:14;99670.63;;;5.04;90.73
24154;BME280;12312;53.362;-1.518;2023-01-30T06:13:40;99675.06;;;5.04;90.88
24154;BME280;12312;53.362;-1.518;2023-01-30T06:16:07;99666.28;;;5.03;91.45
24154;BME280;12312;53.362;-1.518;2023-01-30T06:18:34;99656.66;;;5.02;91.08
24154;BME280;12312;53.362;-1.518;2023-01-30T06:21:00;99647.03;;;5.01;92.23
24154;BME280;12312;53.362;-1.518;2023-01-30T06:23:26;99662.06;;;4.99;92.51
24154;BME280;12312;53.362;-1.518;2023-01-30T06:25:53;99649.66;;;5.01;92.87
24154;BME280;12312;53.362;-1.518;2023-01-30T06:28:19;99647.97;;;5.00;92.42
24154;BME280;12312;53.362;-1.518;2023-01-30T06:30:44;99657.13;;;4.92;92.67
24154;BME280;12312;53.362;-1.518;2023-01-30T06:33:10;99659.94;;;5.07;94.68
24154;BME280;12312;53.362;-1.518;2023-01-30T06:35:37;99657.06;;;4.93;93.59
24154;BME280;12312;53.362;-1.518;2023-01-30T06:38:03;99666.88;;;4.90;94.26
24154;BME280;12312;53.362;-1.518;2023-01-30T06:40:29;99661.88;;;4.84;94.05
24154;BME280;12312;53.362;-1.518;2023-01-30T06:42:55;99652.31;;;4.81;95.64
24154;BME280;12312;53.362;-1.518;2023-01-30T06:45:21;99647.94;;;4.80;95.53
24154;BME280;12312;53.362;-1.518;2023-01-30T06:47:50;99636.44;;;4.83;95.79
24154;BME280;12312;53.362;-1.518;2023-01-30T06:50:17;99643.47;;;4.82;94.88
24154;BME280;12312;53.362;-1.518;2023-01-30T06:52:45;99640.91;;;4.81;95.76
24154;BME280;12312;53.362;-1.518;2023-01-30T06:55:13;99654.03;;;4.82;95.95
24154;BME280;12312;53.362;-1.518;2023-01-30T06:57:39;99646.38;;;4.76;95.12
24154;BME280;12312;53.362;-1.518;2023-01-30T07:00:08;99652.19;;;4.84;95.05
24154;BME280;12312;53.362;-1.518;2023-01-30T07:02:36;99655.72;;;4.83;94.42
24154;BME280;12312;53.362;-1.518;2023-01-30T07:05:03;99638.19;;;4.82;93.76
24154;BME280;12312;53.362;-1.518;2023-01-30T07:07:30;99620.41;;;4.87;91.98
24154;BME280;12312;53.362;-1.518;2023-01-30T07:09:56;99616.09;;;4.85;92.20
24154;BME280;12312;53.362;-1.518;2023-01-30T07:12:22;99624.88;;;4.85;90.97
24154;BME280;12312;53.362;-1.518;2023-01-30T07:14:49;99634.69;;;4.82;91.20
24154;BME280;12312;53.362;-1.518;2023-01-30T07:17:15;99617.91;;;4.84;90.94
24154;BME280;12312;53.362;-1.518;2023-01-30T07:19:47;99621.72;;;4.77;92.56
24154;BME280;12312;53.362;-1.518;2023-01-30T07:22:13;99629.56;;;4.79;92.53
24154;BME280;12312;53.362;-1.518;2023-01-30T07:24:39;99632.31;;;4.76;92.29
24154;BME280;12312;53.362;-1.518;2023-01-30T07:27:08;99630.56;;;4.76;91.83
24154;BME280;12312;53.362;-1.518;2023-01-30T07:29:35;99619.22;;;4.74;92.64
24154;BME280;12312;53.362;-1.518;2023-01-30T07:32:02;99650.72;;;4.77;91.90
24154;BME280;12312;53.362;-1.518;2023-01-30T07:34:28;99664.69;;;4.79;92.59
24154;BME280;12312;53.362;-1.518;2023-01-30T07:36:53;99684.09;;;4.78;93.16
24154;BME280;12312;53.362;-1.518;2023-01-30T07:39:19;99684.09;;;4.78;93.32
24154;BME280;12312;53.362;-1.518;2023-01-30T07:41:45;99692.88;;;4.77;93.08
24154;BME280;12312;53.362;-1.518;2023-01-30T07:44:11;99666.53;;;4.77;92.83
24154;BME280;12312;53.362;-1.518;2023-01-30T07:46:37;99688.81;;;4.70;93.81
24154;BME280;12312;53.362;-1.518;2023-01-30T07:49:04;99678.06;;;4.75;93.02
24154;BME280;12312;53.362;-1.518;2023-01-30T07:51:30;99691.31;;;4.73;94.84
24154;BME280;12312;53.362;-1.518;2023-01-30T07:53:56;99695.00;;;4.69;94.82
24154;BME280;12312;53.362;-1.518;2023-01-30T07:56:22;99700.41;;;4.66;95.79
24154;BME280;12312;53.362;-1.518;2023-01-30T07:58:53;99699.41;;;4.69;95.44
24154;BME280;12312;53.362;-1.518;2023-01-30T08:01:20;99682.78;;;4.67;95.46
24154;BME280;12312;53.362;-1.518;2023-01-30T08:03:46;99686.31;;;4.67;96.51
24154;BME280;12312;53.362;-1.518;2023-01-30T08:06:14;99690.09;;;4.60;96.80
24154;BME280;12312;53.362;-1.518;2023-01-30T08:08:40;99682.13;;;4.62;96.02
24154;BME280;12312;53.362;-1.518;2023-01-30T08:11:05;99669.75;;;4.64;96.45
24154;BME280;12312;53.362;-1.518;2023-01-30T08:13:31;99679.31;;;4.66;96.75
24154;BME280;12312;53.362;-1.518;2023-01-30T08:16:00;99692.50;;;4.66;96.59
24154;BME280;12312;53.362;-1.518;2023-01-30T08:18:27;99696.03;;;4.65;96.39
24154;BME280;12312;53.362;-1.518;2023-01-30T08:20:57;99696.84;;;4.67;96.85
24154;BME280;12312;53.362;-1.518;2023-01-30T08:23:23;99701.56;;;4.59;97.15
24154;BME280;12312;53.362;-1.518;2023-01-30T08:25:56;99714.63;;;4.62;97.60
24154;BME280;12312;53.362;-1.518;2023-01-30T08:28:23;99737.44;;;4.63;98.47
24154;BME280;12312;53.362;-1.518;2023-01-30T08:30:49;99744.59;;;4.60;98.48
24154;BME280;12312;53.362;-1.518;2023-01-30T08:33:16;99741.03;;;4.61;98.39
24154;BME280;12312;53.362;-1.518;2023-01-30T08:35:42;99740.97;;;4.62;98.21
24154;BME280;12312;53.362;-1.518;2023-01-30T08:38:08;99745.34;;;4.63;98.73
24154;BME280;12312;53.362;-1.518;2023-01-30T08:40:35;99733.00;;;4.64;98.42
24154;BME280;12312;53.362;-1.518;2023-01-30T08:43:01;99736.44;;;4.66;98.71
24154;BME280;12312;53.362;-1.518;2023-01-30T08:45:29;99744.16;;;4.70;98.27
24154;BME280;12312;53.362;-1.518;2023-01-30T08:47:59;99753.00;;;4.69;98.58
24154;BME280;12312;53.362;-1.518;2023-01-30T08:50:25;99752.75;;;4.75;97.50
24154;BME280;12312;53.362;-1.518;2023-01-30T08:52:51;99754.47;;;4.76;97.20
24154;BME280;12312;53.362;-1.518;2023-01-30T08:55:16;99745.63;;;4.77;97.62
24154;BME280;12312;53.362;-1.518;2023-01-30T08:57:43;99750.88;;;4.77;97.12
24154;BME280;12312;53.362;-1.518;2023-01-30T09:00:10;99768.31;;;4.81;96.83
24154;BME280;12312;53.362;-1.518;2023-01-30T09:02:36;99761.44;;;4.77;97.88
24154;BME280;12312;53.362;-1.518;2023-01-30T09:05:03;99773.72;;;4.78;98.00
24154;BME280;12312;53.362;-1.518;2023-01-30T09:07:29;99787.66;;;4.80;97.47
24154;BME280;12312;53.362;-1.518;2023-01-30T09:09:55;99791.94;;;4.84;97.16
24154;BME280;12312;53.362;-1.518;2023-01-30T09:12:21;99793.69;;;4.84;97.65
24154;BME280;12312;53.362;-1.518;2023-01-30T09:14:46;99780.44;;;4.85;98.28
24154;BME280;12312;53.362;-1.518;2023-01-30T09:17:12;99776.03;;;4.86;97.97
24154;BME280;12312;53.362;-1.518;2023-01-30T09:19:37;99785.78;;;4.84;98.07
24154;BME280;12312;53.362;-1.518;2023-01-30T09:22:04;99808.53;;;4.86;98.40
24154;BME280;12312;53.362;-1.518;2023-01-30T09:24:29;99782.16;;;4.86;98.04
24154;BME280;12312;53.362;-1.518;2023-01-30T09:26:56;99776.03;;;4.86;98.27
24154;BME280;12312;53.362;-1.518;2023-01-30T09:29:23;99790.75;;;4.91;99.06
24154;BME280;12312;53.362;-1.518;2023-01-30T09:31:49;99761.69;;;4.93;97.81
24154;BME280;12312;53.362;-1.518;2023-01-30T09:34:15;99777.44;;;4.94;98.45
24154;BME280;12312;53.362;-1.518;2023-01-30T09:36:40;99763.13;;;5.00;97.71
24154;BME280;12312;53.362;-1.518;2023-01-30T09:39:06;99763.06;;;5.01;97.43
24154;BME280;12312;53.362;-1.518;2023-01-30T09:47:11;99774.16;;;5.09;96.61
24154;BME280;12312;53.362;-1.518;2023-01-30T09:53:02;99786.19;;;5.16;95.20
24154;BME280;12312;53.362;-1.518;2023-01-30T09:55:32;99760.72;;;5.15;95.37
24154;BME280;12312;53.362;-1.518;2023-01-30T09:58:01;99758.09;;;5.15;95.50
24154;BME280;12312;53.362;-1.518;2023-01-30T10:00:34;99755.25;;;5.20;95.67
24154;BME280;12312;53.362;-1.518;2023-01-30T10:03:18;99760.66;;;5.17;95.81
24154;BME280;12312;53.362;-1.518;2023-01-30T10:08:34;99796.50;;;5.22;96.50
24154;BME280;12312;53.362;-1.518;2023-01-30T10:17:03;99808.97;;;5.39;96.80
24154;BME280;12312;53.362;-1.518;2023-01-30T10:27:31;99816.81;;;5.40;95.52
24154;BME280;12312;53.362;-1.518;2023-01-30T10:30:02;99816.81;;;5.40;95.62
24154;BME280;12312;53.362;-1.518;2023-01-30T10:32:29;99815.97;;;5.40;95.69
24154;BME280;12312;53.362;-1.518;2023-01-30T10:35:03;99826.38;;;5.43;95.94
24154;BME280;12312;53.362;-1.518;2023-01-30T10:37:41;99870.25;;;5.45;96.29
24154;BME280;12312;53.362;-1.518;2023-01-30T10:42:50;99855.22;;;5.47;95.19
24154;BME280;12312;53.362;-1.518;2023-01-30T10:45:32;99860.63;;;5.44;94.95
24154;BME280;12312;53.362;-1.518;2023-01-30T10:50:57;99867.50;;;5.48;96.10
24154;BME280;12312;53.362;-1.518;2023-01-30T10:53:51;99879.66;;;5.53;94.76
24154;BME280;12312;53.362;-1.518;2023-01-30T10:56:22;99895.38;;;5.56;95.71
24154;BME280;12312;53.362;-1.518;2023-01-30T10:59:14;99904.06;;;5.57;95.81
24154;BME280;12312;53.362;-1.518;2023-01-30T11:04:57;99910.59;;;5.49;95.80
24154;BME280;12312;53.362;-1.518;2023-01-30T11:07:25;99924.41;;;5.56;95.45
24154;BME280;12312;53.362;-1.518;2023-01-30T11:09:52;99918.19;;;5.57;95.32
24154;BME280;12312;53.362;-1.518;2023-01-30T11:12:18;99922.19;;;5.67;94.66
24154;BME280;12312;53.362;-1.518;2023-01-30T11:17:18;99920.38;;;5.89;94.43
24154;BME280;12312;53.362;-1.518;2023-01-30T11:19:44;99930.69;;;5.95;94.86
24154;BME280;12312;53.362;-1.518;2023-01-30T11:22:19;99923.63;;;6.15;92.76
24154;BME280;12312;53.362;-1.518;2023-01-30T11:24:45;99910.25;;;6.20;93.16
24154;BME280;12312;53.362;-1.518;2023-01-30T11:27:30;99912.63;;;6.06;92.63
24154;BME280;12312;53.362;-1.518;2023-01-30T11:32:37;99925.75;;;6.07;92.47
24154;BME280;12312;53.362;-1.518;2023-01-30T11:35:16;99910.03;;;6.04;93.33
24154;BME280;12312;53.362;-1.518;2023-01-30T11:37:44;99912.47;;;6.09;92.82
24154;BME280;12312;53.362;-1.518;2023-01-30T11:40:26;99900.19;;;6.08;92.74
24154;BME280;12312;53.362;-1.518;2023-01-30T11:43:03;99905.44;;;6.28;92.16
24154;BME280;12312;53.362;-1.518;2023-01-30T11:45:37;99907.69;;;6.37;91.34
24154;BME280;12312;53.362;-1.518;2023-01-30T11:48:10;99914.56;;;6.41;90.68
24154;BME280;12312;53.362;-1.518;2023-01-30T11:50:41;99918.56;;;6.49;90.80
24154;BME280;12312;53.362;-1.518;2023-01-30T11:55:58;99931.16;;;7.01;89.04
24154;BME280;12312;53.362;-1.518;2023-01-30T11:58:29;99926.19;;;7.12;87.36
24154;BME280;12312;53.362;-1.518;2023-01-30T12:00:57;99921.84;;;6.93;88.33
24154;BME280;12312;53.362;-1.518;2023-01-30T12:03:24;99923.91;;;6.68;89.36
24154;BME280;12312;53.362;-1.518;2023-01-30T12:05:51;99929.28;;;6.85;88.64
24154;BME280;12312;53.362;-1.518;2023-01-30T12:10:48;99924.00;;;7.58;85.87
24154;BME280;12312;53.362;-1.518;2023-01-30T12:13:34;99923.97;;;7.76;83.39
24154;BME280;12312;53.362;-1.518;2023-01-30T12:19:01;99919.53;;;8.11;82.08
24154;BME280;12312;53.362;-1.518;2023-01-30T12:24:25;99925.66;;;7.77;81.31
24154;BME280;12312;53.362;-1.518;2023-01-30T12:27:08;99934.25;;;8.16;80.86
24154;BME280;12312;53.362;-1.518;2023-01-30T12:32:44;99955.75;;;7.76;80.79
24154;BME280;12312;53.362;-1.518;2023-01-30T12:35:14;99947.56;;;8.15;81.21
24154;BME280;12312;53.362;-1.518;2023-01-30T12:38:02;99952.47;;;8.05;80.62
24154;BME280;12312;53.362;-1.518;2023-01-30T12:48:42;99956.97;;;8.88;77.21
24154;BME280;12312;53.362;-1.518;2023-01-30T12:56:44;99961.16;;;8.92;74.27
24154;BME280;12312;53.362;-1.518;2023-01-30T12:59:24;99965.38;;;9.59;73.59
24154;BME280;12312;53.362;-1.518;2023-01-30T13:07:38;99971.31;;;9.64;71.67
24154;BME280;12312;53.362;-1.518;2023-01-30T13:13:52;99982.09;;;10.37;67.98
24154;BME280;12312;53.362;-1.518;2023-01-30T13:16:05;99983.19;;;10.19;67.95
24154;BME280;12312;53.362;-1.518;2023-01-30T13:21:52;99985.59;;;9.30;75.27
24154;BME280;12312;53.362;-1.518;2023-01-30T13:26:59;99975.28;;;9.08;77.00
24154;BME280;12312;53.362;-1.518;2023-01-30T13:31:58;99963.25;;;8.86;77.10
24154;BME280;12312;53.362;-1.518;2023-01-30T13:34:33;99975.41;;;7.89;81.15
24154;BME280;12312;53.362;-1.518;2023-01-30T13:42:06;99973.22;;;7.62;82.97
24154;BME280;12312;53.362;-1.518;2023-01-30T13:44:37;99973.34;;;7.77;84.37
24154;BME280;12312;53.362;-1.518;2023-01-30T13:53:10;99979.28;;;7.28;84.31
24154;BME280;12312;53.362;-1.518;2023-01-30T13:55:46;99985.63;;;7.05;84.91
24154;BME280;12312;53.362;-1.518;2023-01-30T14:00:53;99977.47;;;7.10;84.58
24154;BME280;12312;53.362;-1.518;2023-01-30T14:03:28;99971.84;;;7.17;84.77
24154;BME280;12312;53.362;-1.518;2023-01-30T14:08:28;99970.03;;;6.99;84.80
24154;BME280;12312;53.362;-1.518;2023-01-30T14:10:55;99973.97;;;7.09;84.95
24154;BME280;12312;53.362;-1.518;2023-01-30T14:13:25;99972.66;;;7.55;83.14
24154;BME280;12312;53.362;-1.518;2023-01-30T14:16:00;99964.91;;;7.69;81.77
24154;BME280;12312;53.362;-1.518;2023-01-30T14:18:29;99962.19;;;7.35;80.68
24154;BME280;12312;53.362;-1.518;2023-01-30T14:21:17;99958.22;;;7.06;83.22
24154;BME280;12312;53.362;-1.518;2023-01-30T14:24:03;99963.41;;;6.91;82.91
24154;BME280;12312;53.362;-1.518;2023-01-30T14:32:06;99958.34;;;6.66;84.85
24154;BME280;12312;53.362;-1.518;2023-01-30T14:40:00;99966.69;;;6.57;85.44
24154;BME280;12312;53.362;-1.518;2023-01-30T14:42:29;99954.72;;;6.49;84.76
24154;BME280;12312;53.362;-1.518;2023-01-30T14:45:01;99969.75;;;6.48;84.98
24154;BME280;12312;53.362;-1.518;2023-01-30T14:47:29;99966.16;;;6.49;84.83
24154;BME280;12312;53.362;-1.518;2023-01-30T14:49:56;99963.38;;;6.52;84.80
24154;BME280;12312;53.362;-1.518;2023-01-30T14:54:54;99974.16;;;6.48;85.27
24154;BME280;12312;53.362;-1.518;2023-01-30T14:57:23;99970.03;;;6.42;85.19
24154;BME280;12312;53.362;-1.518;2023-01-30T14:59:59;99977.16;;;6.40;84.36
24154;BME280;12312;53.362;-1.518;2023-01-30T15:02:31;99975.50;;;6.38;84.13
24154;BME280;12312;53.362;-1.518;2023-01-30T15:05:33;99986.53;;;6.27;85.53
24154;BME280;12312;53.362;-1.518;2023-01-30T15:08:05;99989.25;;;6.26;86.23
24154;BME280;12312;53.362;-1.518;2023-01-30T15:10:57;99995.56;;;6.22;86.83
24154;BME280;12312;53.362;-1.518;2023-01-30T15:28:01;100025.41;;;6.04;89.15
24154;BME280;12312;53.362;-1.518;2023-01-30T15:33:46;100028.22;;;6.21;91.22
24154;BME280;12312;53.362;-1.518;2023-01-30T15:38:44;100045.66;;;6.25;89.94
24154;BME280;12312;53.362;-1.518;2023-01-30T15:41:09;100044.69;;;6.27;89.10
24154;BME280;12312;53.362;-1.518;2023-01-30T15:52:46;100042.25;;;6.23;89.61
24154;BME280;12312;53.362;-1.518;2023-01-30T15:55:25;100039.72;;;6.20;88.85
24154;BME280;12312;53.362;-1.518;2023-01-30T15:57:55;100042.38;;;6.20;90.16
24154;BME280;12312;53.362;-1.518;2023-01-30T16:00:31;100039.78;;;6.18;90.10
24154;BME280;12312;53.362;-1.518;2023-01-30T16:03:00;100044.34;;;6.15;90.56